Time;durP1;ratioP1;P1;durP2;ratioP2;P2;SDS_P1;SDS_P2;PMS_P1;PMS_P2;Temp;Humidity;BMP_temperature;BMP_pressure;BME280_temperature;BME280_humidity;BME280_pressure;Samples;Min_cycle;Max_cycle;Signal;HPM_P1;HPM_P2
2022/10/08 00:01:17;;;;;;;15.27;3.72;;;14.90;99.90;;;;;;5119719;28;20071;-70
2022/10/08 00:03:50;;;;;;;11.18;3.30;;;14.80;99.90;;;;;;5119502;28;20044;-70
2022/10/08 00:06:31;;;;;;;18.45;4.05;;;14.90;99.90;;;;;;5118702;28;20107;-70
2022/10/08 00:09:01;;;;;;;12.88;3.55;;;14.90;99.90;;;;;;5119917;28;20051;-70
2022/10/08 00:11:32;;;;;;;13.00;3.05;;;14.90;99.90;;;;;;5118520;28;20332;-70
2022/10/08 00:13:58;;;;;;;12.48;3.50;;;14.90;99.90;;;;;;5118790;28;20432;-70
2022/10/08 00:16:37;;;;;;;14.85;3.38;;;14.80;99.90;;;;;;5119372;28;20039;-71
2022/10/08 00:19:14;;;;;;;13.70;3.17;;;14.80;99.90;;;;;;5153261;27;20035;-71
2022/10/08 00:21:42;;;;;;;12.65;2.60;;;14.80;99.90;;;;;;5119390;28;20397;-70
2022/10/08 00:24:14;;;;;;;13.07;3.50;;;14.90;99.90;;;;;;5119727;27;20058;-70
2022/10/08 00:26:40;;;;;;;14.50;3.17;;;14.90;99.90;;;;;;5119709;28;20043;-70
2022/10/08 00:29:06;;;;;;;14.45;2.72;;;14.90;99.90;;;;;;5153008;27;20050;-70
2022/10/08 00:31:36;;;;;;;8.80;2.42;;;14.90;99.90;;;;;;5119233;28;20035;-70
2022/10/08 00:34:06;;;;;;;13.02;2.75;;;14.80;99.90;;;;;;5119466;28;20031;-70
2022/10/08 00:36:33;;;;;;;9.05;2.70;;;14.90;99.90;;;;;;5152852;27;20328;-71
2022/10/08 00:39:16;;;;;;;10.32;2.63;;;14.90;99.90;;;;;;5119399;28;20096;-71
2022/10/08 00:41:45;;;;;;;11.30;2.10;;;14.80;99.90;;;;;;5119088;28;20424;-70
2022/10/08 00:44:49;;;;;;;8.00;2.47;;;14.90;99.90;;;;;;5118890;27;20100;-70
2022/10/08 00:47:34;;;;;;;7.30;2.30;;;14.90;99.90;;;;;;5118855;28;20048;-70
2022/10/08 00:50:09;;;;;;;10.02;2.53;;;14.90;99.90;;;;;;5119199;27;20066;-70
2022/10/08 00:52:39;;;;;;;7.97;2.00;;;14.90;99.90;;;;;;5119161;28;20071;-70
2022/10/08 00:55:07;;;;;;;8.85;1.77;;;14.90;99.90;;;;;;5117768;28;20052;-70
2022/10/08 00:57:34;;;;;;;11.05;2.35;;;15.00;99.90;;;;;;5119098;28;20383;-70
2022/10/08 01:00:04;;;;;;;7.90;1.80;;;15.00;99.90;;;;;;5117618;28;20039;-71
2022/10/08 01:02:30;;;;;;;12.35;2.30;;;15.10;99.90;;;;;;5118635;28;20306;-71
2022/10/08 01:04:56;;;;;;;7.25;2.25;;;15.10;99.90;;;;;;5152076;27;20050;-71
2022/10/08 01:07:34;;;;;;;8.45;1.80;;;15.10;99.90;;;;;;5118815;28;20044;-71
2022/10/08 01:10:26;;;;;;;7.10;2.08;;;15.00;99.90;;;;;;5118774;28;20101;-71
2022/10/08 01:13:15;;;;;;;8.82;1.90;;;15.00;99.90;;;;;;5118792;28;20119;-70
2022/10/08 01:15:48;;;;;;;7.05;1.90;;;14.90;99.90;;;;;;5097670;28;20048;-71
2022/10/08 01:18:23;;;;;;;10.45;1.90;;;14.90;99.90;;;;;;5118341;28;20432;-71
2022/10/08 01:21:04;;;;;;;8.27;2.00;;;14.90;99.90;;;;;;5117539;28;20054;-71
2022/10/08 01:24:05;;;;;;;7.80;1.90;;;14.90;99.90;;;;;;5117267;28;20039;-71
2022/10/08 01:26:48;;;;;;;9.85;2.30;;;15.00;99.90;;;;;;5095754;28;20079;-71
2022/10/08 01:29:22;;;;;;;9.98;2.28;;;15.00;99.90;;;;;;5117119;28;20096;-71
2022/10/08 01:32:14;;;;;;;6.55;1.65;;;15.00;99.90;;;;;;5117091;28;20074;-71
2022/10/08 01:34:45;;;;;;;14.48;2.63;;;15.10;99.90;;;;;;5112117;28;20050;-71
2022/10/08 01:37:20;;;;;;;8.60;2.08;;;15.00;99.90;;;;;;5116959;28;20080;-71
2022/10/08 01:39:47;;;;;;;9.40;1.95;;;15.00;99.90;;;;;;5118253;28;20065;-71
2022/10/08 01:42:15;;;;;;;11.80;2.60;;;15.10;99.90;;;;;;5151319;27;20031;-71
2022/10/08 01:44:48;;;;;;;10.60;2.00;;;15.10;99.90;;;;;;5118056;27;20044;-71
2022/10/08 01:47:18;;;;;;;10.40;2.17;;;15.10;99.90;;;;;;5150910;27;20035;-71
2022/10/08 01:50:01;;;;;;;13.18;2.72;;;15.10;99.90;;;;;;5118076;28;20114;-71
2022/10/08 01:52:32;;;;;;;5.70;1.80;;;15.00;99.90;;;;;;5117728;28;20420;-71
2022/10/08 01:55:02;;;;;;;14.68;2.60;;;15.00;99.90;;;;;;5117688;28;20529;-71
2022/10/08 01:57:32;;;;;;;9.95;1.98;;;14.90;99.90;;;;;;5151001;27;20089;-71
2022/10/08 02:00:11;;;;;;;9.30;1.98;;;14.90;99.90;;;;;;5117864;28;20344;-71
2022/10/08 02:02:37;;;;;;;9.20;2.20;;;14.80;99.90;;;;;;5116514;28;20047;-71
2022/10/08 02:05:03;;;;;;;4.47;1.17;;;14.70;99.90;;;;;;5117783;28;20044;-71
2022/10/08 02:07:32;;;;;;;5.50;1.20;;;14.80;99.90;;;;;;5117466;28;20088;-71
2022/10/08 02:10:20;;;;;;;5.18;0.90;;;14.70;99.90;;;;;;5117685;28;20114;-71
2022/10/08 02:12:45;;;;;;;5.10;1.27;;;14.70;99.90;;;;;;5116590;28;20044;-71
2022/10/08 02:15:20;;;;;;;8.35;1.15;;;14.70;99.90;;;;;;5150946;27;20390;-71
2022/10/08 02:18:05;;;;;;;6.53;1.08;;;14.70;99.90;;;;;;5115937;28;20052;-71
2022/10/08 02:20:38;;;;;;;8.43;1.20;;;14.70;99.90;;;;;;5116278;28;20035;-71
2022/10/08 02:23:10;;;;;;;5.43;1.00;;;14.60;99.90;;;;;;5117156;28;20929;-71
2022/10/08 02:25:50;;;;;;;6.45;1.05;;;14.60;99.90;;;;;;5117040;28;20044;-71
2022/10/08 02:28:15;;;;;;;9.85;1.45;;;14.50;99.90;;;;;;5117497;28;20106;-71
2022/10/08 02:30:57;;;;;;;6.18;1.33;;;14.40;99.90;;;;;;5117123;28;20464;-71
2022/10/08 02:33:33;;;;;;;3.58;0.68;;;14.30;99.90;;;;;;5099287;28;20039;-71
2022/10/08 02:36:00;;;;;;;4.50;1.27;;;14.30;99.90;;;;;;5116114;28;20043;-71
2022/10/08 02:38:42;;;;;;;5.50;1.10;;;14.30;99.90;;;;;;5117147;28;20091;-71
2022/10/08 02:41:10;;;;;;;6.00;1.10;;;14.30;99.90;;;;;;5150433;27;20039;-71
2022/10/08 02:43:40;;;;;;;4.50;1.25;;;14.20;99.90;;;;;;5116976;28;20079;-70
2022/10/08 02:46:13;;;;;;;8.27;1.52;;;14.20;99.90;;;;;;5116838;28;20124;-71
2022/10/08 02:48:51;;;;;;;6.95;1.38;;;14.30;99.90;;;;;;5117266;28;20040;-71
2022/10/08 02:51:18;;;;;;;2.80;1.20;;;14.20;99.90;;;;;;5117261;28;20040;-70
2022/10/08 02:53:47;;;;;;;5.25;1.00;;;14.20;99.90;;;;;;5150336;27;20074;-70
2022/10/08 02:56:21;;;;;;;5.97;1.50;;;14.10;99.90;;;;;;5116108;28;20039;-71
2022/10/08 02:58:47;;;;;;;4.40;1.15;;;14.20;99.90;;;;;;5115870;28;20132;-70
2022/10/08 03:01:43;;;;;;;4.22;1.20;;;14.10;99.90;;;;;;5117114;28;20075;-70
2022/10/08 03:04:11;;;;;;;7.30;1.20;;;14.10;99.90;;;;;;5116763;28;20051;-70
2022/10/08 03:06:38;;;;;;;2.05;1.00;;;14.00;99.90;;;;;;5116706;28;20451;-71
2022/10/08 03:09:07;;;;;;;7.57;1.70;;;14.00;99.90;;;;;;5117079;28;20328;-70
2022/10/08 03:11:34;;;;;;;5.28;1.10;;;14.00;99.90;;;;;;5117025;28;20047;-70
2022/10/08 03:14:04;;;;;;;8.40;1.65;;;14.00;99.90;;;;;;5132758;28;20085;-71
2022/10/08 03:16:41;;;;;;;5.00;1.50;;;14.00;99.90;;;;;;5115562;28;20105;-71
2022/10/08 03:19:09;;;;;;;4.30;1.40;;;13.80;99.90;;;;;;5116688;28;20424;-71
2022/10/08 03:21:38;;;;;;;11.82;2.28;;;13.80;99.90;;;;;;5115614;28;20062;-70
2022/10/08 03:24:08;;;;;;;5.53;1.55;;;13.90;99.90;;;;;;5115879;28;20362;-70
2022/10/08 03:26:34;;;;;;;7.68;1.67;;;14.00;99.90;;;;;;5116853;28;20115;-70
2022/10/08 03:29:00;;;;;;;9.75;1.90;;;14.00;99.90;;;;;;5115832;28;20036;-71
2022/10/08 03:31:27;;;;;;;4.10;1.58;;;14.00;99.90;;;;;;5115493;28;20096;-71
2022/10/08 03:33:54;;;;;;;10.32;1.85;;;14.10;99.90;;;;;;5116843;28;20031;-71
2022/10/08 03:36:21;;;;;;;9.80;2.35;;;14.00;99.90;;;;;;5115705;28;20096;-71
2022/10/08 03:38:48;;;;;;;11.18;2.60;;;14.20;99.90;;;;;;5151737;27;20444;-71
2022/10/08 03:41:14;;;;;;;8.90;2.45;;;14.20;99.90;;;;;;5153620;27;20075;-70
2022/10/08 03:43:40;;;;;;;11.10;2.08;;;14.20;99.90;;;;;;5153404;27;20070;-71
2022/10/08 03:46:07;;;;;;;13.38;3.15;;;14.20;99.90;;;;;;5119688;28;20144;-71
2022/10/08 03:48:33;;;;;;;7.63;2.55;;;14.30;99.90;;;;;;5119100;28;20421;-71
2022/10/08 03:51:01;;;;;;;7.95;2.65;;;14.10;99.90;;;;;;5120367;28;20039;-71
2022/10/08 03:53:27;;;;;;;8.32;2.08;;;14.10;99.90;;;;;;5120050;28;20075;-70
2022/10/08 03:55:53;;;;;;;14.20;3.05;;;14.20;99.90;;;;;;5120294;27;20047;-71
2022/10/08 03:58:19;;;;;;;9.88;2.40;;;14.20;99.90;;;;;;5120214;28;20371;-70
2022/10/08 04:01:07;;;;;;;8.13;2.03;;;14.20;99.90;;;;;;5120170;28;20084;-70
2022/10/08 04:03:33;;;;;;;6.10;2.22;;;14.20;99.90;;;;;;5120143;28;20042;-70
2022/10/08 04:05:59;;;;;;;9.52;2.58;;;14.20;99.90;;;;;;5119983;28;20326;-71
2022/10/08 04:08:25;;;;;;;13.15;2.22;;;14.10;99.90;;;;;;5120025;28;20045;-71
2022/10/08 04:10:51;;;;;;;12.02;2.50;;;14.10;99.90;;;;;;5118694;28;20028;-71
2022/10/08 04:13:18;;;;;;;8.45;1.83;;;14.10;99.90;;;;;;5118935;28;20031;-71
2022/10/08 04:15:46;;;;;;;11.68;2.53;;;14.00;99.90;;;;;;5119909;28;20046;-70
2022/10/08 04:18:12;;;;;;;7.53;1.70;;;14.00;99.90;;;;;;5119469;28;20047;-71
2022/10/08 04:20:39;;;;;;;9.45;1.85;;;14.00;99.90;;;;;;5119805;28;20107;-72
2022/10/08 04:23:06;;;;;;;10.25;1.80;;;13.90;99.90;;;;;;5118428;28;20047;-71
2022/10/08 04:25:32;;;;;;;6.80;1.65;;;13.90;99.90;;;;;;5119598;28;20115;-71
2022/10/08 04:27:58;;;;;;;6.22;1.60;;;13.90;99.90;;;;;;5119361;28;20078;-71
2022/10/08 04:30:23;;;;;;;4.55;1.35;;;13.80;99.90;;;;;;5119608;28;20043;-70
2022/10/08 04:32:49;;;;;;;7.13;2.08;;;13.80;99.90;;;;;;5118228;28;20039;-71
2022/10/08 04:35:15;;;;;;;6.30;1.50;;;13.80;99.90;;;;;;5152750;27;20047;-71
2022/10/08 04:37:41;;;;;;;4.85;1.40;;;13.80;99.90;;;;;;5119482;28;20039;-70
2022/10/08 04:40:07;;;;;;;8.30;1.92;;;13.80;99.90;;;;;;5152788;27;20074;-71
2022/10/08 04:42:33;;;;;;;12.07;2.00;;;13.70;99.90;;;;;;5118882;28;20055;-71
2022/10/08 04:44:59;;;;;;;4.97;1.45;;;13.70;99.90;;;;;;5119088;28;20047;-71
2022/10/08 04:47:24;;;;;;;8.05;1.80;;;13.70;99.90;;;;;;5118515;28;20386;-71
2022/10/08 04:49:50;;;;;;;5.22;1.65;;;13.70;99.90;;;;;;5151972;27;20044;-71
2022/10/08 04:52:17;;;;;;;7.28;1.58;;;13.60;99.90;;;;;;5119028;28;20039;-70
2022/10/08 04:54:43;;;;;;;7.68;2.00;;;13.70;99.90;;;;;;5117840;28;20052;-71
2022/10/08 04:57:09;;;;;;;6.85;1.50;;;13.60;99.90;;;;;;5119117;28;20035;-71
2022/10/08 04:59:35;;;;;;;11.30;2.22;;;13.60;99.90;;;;;;5152037;27;20118;-71
2022/10/08 05:02:01;;;;;;;13.43;2.50;;;13.70;99.90;;;;;;5118661;28;20035;-71
2022/10/08 05:04:26;;;;;;;8.52;1.77;;;13.60;99.90;;;;;;5118875;28;20119;-71
2022/10/08 05:06:52;;;;;;;11.95;2.60;;;13.60;99.90;;;;;;5118549;28;20036;-71
2022/10/08 05:09:17;;;;;;;11.13;2.45;;;13.60;99.90;;;;;;5118832;28;20035;-71
2022/10/08 05:11:43;;;;;;;7.70;1.45;;;13.50;99.90;;;;;;5117741;28;20473;-71
2022/10/08 05:14:09;;;;;;;17.50;2.33;;;13.50;99.90;;;;;;5117433;28;20500;-71
2022/10/08 05:16:35;;;;;;;8.25;1.70;;;13.50;99.90;;;;;;5116916;28;20051;-71
2022/10/08 05:19:02;;;;;;;11.45;1.73;;;13.40;99.90;;;;;;5118679;28;20329;-72
2022/10/08 05:21:31;;;;;;;9.30;1.95;;;13.50;99.90;;;;;;5118612;28;20040;-71
2022/10/08 05:24:09;;;;;;;8.85;1.55;;;13.40;99.90;;;;;;5117436;28;20035;-71
2022/10/08 05:26:38;;;;;;;7.80;1.63;;;13.40;99.90;;;;;;5118450;28;20044;-71
2022/10/08 05:29:04;;;;;;;10.00;1.88;;;13.30;99.90;;;;;;5118449;28;20036;-71
2022/10/08 05:31:30;;;;;;;9.25;2.33;;;13.30;99.90;;;;;;5116965;28;20421;-71
2022/10/08 05:33:57;;;;;;;12.07;2.65;;;13.30;99.90;;;;;;5118329;28;20063;-71
2022/10/08 05:36:26;;;;;;;12.52;1.98;;;13.30;99.90;;;;;;5118316;28;20118;-71
2022/10/08 05:38:52;;;;;;;15.57;3.60;;;13.20;99.90;;;;;;5118576;28;20035;-71
2022/10/08 05:41:33;;;;;;;13.25;3.33;;;13.20;99.90;;;;;;5116874;28;20043;-71
2022/10/08 05:44:02;;;;;;;15.88;3.10;;;13.20;99.90;;;;;;5117802;28;20090;-70
2022/10/08 05:46:31;;;;;;;16.90;3.65;;;13.20;99.90;;;;;;5117652;28;20039;-71
2022/10/08 05:48:59;;;;;;;8.20;2.33;;;13.20;99.90;;;;;;5117798;28;20035;-71
2022/10/08 05:51:26;;;;;;;10.32;2.63;;;13.20;99.90;;;;;;5116964;28;20036;-71
2022/10/08 05:53:53;;;;;;;9.73;2.08;;;13.30;99.90;;;;;;5117973;28;20081;-71
2022/10/08 05:56:22;;;;;;;17.40;3.50;;;13.30;99.90;;;;;;5117945;28;20047;-71
2022/10/08 05:58:49;;;;;;;18.75;3.35;;;13.20;99.90;;;;;;5116920;28;20040;-71
2022/10/08 06:01:21;;;;;;;18.48;2.55;;;13.20;99.90;;;;;;5116419;28;20039;-71
2022/10/08 06:03:58;;;;;;;12.68;2.55;;;13.20;99.90;;;;;;5117805;28;20044;-70
2022/10/08 06:06:25;;;;;;;8.98;2.28;;;13.10;99.90;;;;;;5117756;28;20047;-71
2022/10/08 06:09:00;;;;;;;18.30;3.25;;;13.10;99.90;;;;;;5117768;28;20067;-71
2022/10/08 06:11:28;;;;;;;9.40;1.95;;;13.10;99.90;;;;;;5116375;28;20447;-71
2022/10/08 06:13:58;;;;;;;11.50;2.40;;;13.20;99.90;;;;;;5117320;28;20437;-71
2022/10/08 06:16:24;;;;;;;8.32;1.92;;;13.10;99.90;;;;;;5150910;27;20437;-71
2022/10/08 06:18:50;;;;;;;9.65;2.88;;;13.20;99.90;;;;;;5116249;28;20433;-71
2022/10/08 06:21:18;;;;;;;15.48;3.17;;;13.20;99.90;;;;;;5117505;28;20043;-71
2022/10/08 06:23:52;;;;;;;11.15;2.33;;;13.20;99.90;;;;;;5116480;28;20094;-71
2022/10/08 06:26:18;;;;;;;8.45;1.70;;;13.20;99.90;;;;;;5133892;27;20044;-70
2022/10/08 06:28:45;;;;;;;16.50;2.80;;;13.30;99.90;;;;;;5119954;28;20047;-69
2022/10/08 06:31:11;;;;;;;11.52;2.20;;;13.30;99.90;;;;;;5118627;28;20035;-68
2022/10/08 06:33:37;;;;;;;7.72;1.85;;;13.40;99.90;;;;;;5117421;28;20383;-68
2022/10/08 06:36:17;;;;;;;15.13;2.50;;;13.40;99.90;;;;;;5117309;28;20378;-68
2022/10/08 06:38:58;;;;;;;11.38;2.28;;;13.40;99.90;;;;;;5117183;28;20079;-68
2022/10/08 06:41:24;;;;;;;24.23;2.70;;;13.40;99.90;;;;;;5117068;28;20442;-68
2022/10/08 06:43:50;;;;;;;10.13;2.10;;;13.50;99.90;;;;;;5116929;28;20420;-68
2022/10/08 06:46:17;;;;;;;15.30;2.50;;;13.40;99.90;;;;;;5116494;28;20083;-68
2022/10/08 06:48:43;;;;;;;13.05;2.22;;;13.40;99.90;;;;;;5117239;28;20031;-69
2022/10/08 06:51:16;;;;;;;20.85;2.72;;;13.50;99.90;;;;;;5117441;28;20430;-69
2022/10/08 06:53:43;;;;;;;20.48;2.63;;;13.40;99.90;;;;;;5117204;28;20074;-69
2022/10/08 06:56:14;;;;;;;11.52;2.10;;;13.30;99.90;;;;;;5116845;28;20444;-69
2022/10/08 06:58:42;;;;;;;12.70;1.98;;;13.10;99.90;;;;;;5117160;28;20044;-69
2022/10/08 07:01:12;;;;;;;8.00;1.42;;;12.80;99.90;;;;;;5117064;28;20118;-69
2022/10/08 07:03:38;;;;;;;15.80;1.52;;;12.80;99.90;;;;;;5117117;28;20040;-69
2022/10/08 07:06:07;;;;;;;12.20;1.88;;;12.80;99.90;;;;;;5117021;28;20040;-69
2022/10/08 07:08:34;;;;;;;11.43;1.80;;;12.70;99.90;;;;;;5117042;28;20044;-69
2022/10/08 07:11:07;;;;;;;12.98;1.92;;;12.80;99.90;;;;;;5116788;28;20117;-69
2022/10/08 07:13:33;;;;;;;18.67;1.65;;;12.80;99.90;;;;;;5118389;28;20031;-69
2022/10/08 07:16:01;;;;;;;16.00;2.22;;;12.80;99.90;;;;;;5154507;27;20043;-69
2022/10/08 07:18:27;;;;;;;13.98;1.52;;;12.90;99.90;;;;;;5120623;28;20066;-69
2022/10/08 07:20:56;;;;;;;13.68;2.13;;;13.00;99.90;;;;;;5120896;28;20043;-69
2022/10/08 07:23:22;;;;;;;15.27;2.08;;;13.10;99.90;;;;;;5120682;27;20492;-69
2022/10/08 07:25:59;;;;;;;17.63;1.98;;;13.10;99.90;;;;;;5120780;28;20149;-69
2022/10/08 07:28:27;;;;;;;17.52;2.40;;;13.10;99.90;;;;;;5120470;28;20436;-69
2022/10/08 07:30:52;;;;;;;13.15;1.63;;;13.20;99.90;;;;;;5120756;28;20058;-70
2022/10/08 07:33:18;;;;;;;18.15;2.38;;;13.10;99.90;;;;;;5120452;28;20413;-68
2022/10/08 07:35:44;;;;;;;14.60;1.80;;;13.10;99.90;;;;;;5120342;28;20118;-69
2022/10/08 07:38:09;;;;;;;12.05;1.42;;;13.20;99.90;;;;;;5120592;28;20043;-68
2022/10/08 07:40:35;;;;;;;13.63;1.98;;;13.00;99.90;;;;;;5120594;28;20039;-69
2022/10/08 07:43:01;;;;;;;8.70;1.40;;;13.20;99.90;;;;;;5120209;28;20051;-67
2022/10/08 07:45:27;;;;;;;13.95;1.85;;;13.20;99.90;;;;;;5120118;28;20100;-69
2022/10/08 07:47:52;;;;;;;11.85;1.33;;;13.20;99.90;;;;;;5119708;28;20443;-69
2022/10/08 07:50:18;;;;;;;14.63;1.75;;;13.30;99.90;;;;;;5120368;28;20036;-69
2022/10/08 07:52:44;;;;;;;9.75;1.65;;;13.30;99.90;;;;;;5120621;28;20085;-70
2022/10/08 07:55:09;;;;;;;8.55;1.50;;;13.30;99.90;;;;;;5120293;28;20448;-69
2022/10/08 07:57:35;;;;;;;14.88;1.80;;;13.20;99.90;;;;;;5120277;28;20359;-68
2022/10/08 08:00:01;;;;;;;11.38;1.40;;;13.30;99.90;;;;;;5123484;28;20169;-68
2022/10/08 08:02:26;;;;;;;13.10;1.45;;;13.40;99.90;;;;;;5119812;28;20097;-68
2022/10/08 08:04:52;;;;;;;11.25;1.88;;;13.40;99.90;;;;;;5120012;28;20031;-68
2022/10/08 08:07:18;;;;;;;10.20;1.67;;;13.60;99.90;;;;;;5120053;28;20124;-68
2022/10/08 08:09:43;;;;;;;15.45;2.08;;;13.70;99.90;;;;;;5120032;28;20043;-68
2022/10/08 08:12:09;;;;;;;6.90;1.42;;;13.60;99.90;;;;;;5118903;28;20352;-68
2022/10/08 08:14:34;;;;;;;14.15;1.83;;;13.70;99.90;;;;;;5119964;28;20043;-68
2022/10/08 08:17:00;;;;;;;8.50;1.33;;;13.80;99.90;;;;;;5119414;28;20035;-68
2022/10/08 08:19:26;;;;;;;9.48;1.25;;;13.80;99.90;;;;;;5153256;27;20036;-68
2022/10/08 08:21:52;;;;;;;12.50;1.77;;;13.80;99.90;;;;;;5119757;28;20071;-68
2022/10/08 08:24:17;;;;;;;8.45;1.48;;;13.90;99.90;;;;;;5119021;28;20075;-68
2022/10/08 08:26:43;;;;;;;8.52;1.30;;;13.90;99.90;;;;;;5119783;28;20065;-68
2022/10/08 08:29:17;;;;;;;14.50;1.50;;;13.90;99.90;;;;;;5119713;28;20353;-68
2022/10/08 08:31:45;;;;;;;10.30;1.98;;;13.90;99.90;;;;;;5119346;28;20443;-68
2022/10/08 08:34:21;;;;;;;15.52;1.98;;;14.00;99.90;;;;;;5119569;28;20039;-68
2022/10/08 08:36:48;;;;;;;16.30;1.50;;;14.00;99.90;;;;;;5119513;28;20051;-68
2022/10/08 08:39:19;;;;;;;7.95;1.33;;;14.00;99.90;;;;;;5119494;28;20092;-68
2022/10/08 08:42:09;;;;;;;12.70;1.58;;;14.00;99.90;;;;;;5119195;28;20393;-68
2022/10/08 08:44:38;;;;;;;14.68;1.20;;;14.10;99.90;;;;;;5118766;27;20116;-68
2022/10/08 08:47:12;;;;;;;15.40;1.80;;;14.20;99.90;;;;;;5118824;28;20130;-69
2022/10/08 08:49:54;;;;;;;13.93;1.45;;;14.20;99.90;;;;;;5119252;28;20120;-69
2022/10/08 08:52:27;;;;;;;14.95;1.58;;;14.30;99.90;;;;;;5119215;27;20310;-68
2022/10/08 08:54:53;;;;;;;9.77;1.10;;;14.40;99.90;;;;;;5119199;28;20340;-68
2022/10/08 08:57:54;;;;;;;10.23;1.13;;;14.60;99.90;;;;;;5118143;28;20137;-68
2022/10/08 09:00:22;;;;;;;7.20;0.80;;;14.60;99.90;;;;;;5119107;28;20126;-68
2022/10/08 09:02:59;;;;;;;9.00;1.02;;;14.80;99.90;;;;;;5119038;28;20367;-68
2022/10/08 09:05:29;;;;;;;7.03;1.10;;;14.80;99.90;;;;;;5117504;28;20043;-69
2022/10/08 09:08:04;;;;;;;13.70;1.27;;;14.80;99.90;;;;;;5118912;27;20085;-68
2022/10/08 09:11:09;;;;;;;9.32;1.20;;;14.90;99.90;;;;;;5118592;28;20040;-68
2022/10/08 09:13:35;;;;;;;13.98;1.20;;;15.00;99.90;;;;;;5117846;28;20043;-68
2022/10/08 09:16:01;;;;;;;9.32;1.30;;;14.90;99.50;;;;;;5118695;28;20048;-69
2022/10/08 09:18:26;;;;;;;13.63;1.40;;;15.00;99.60;;;;;;5116984;28;20044;-68
2022/10/08 09:20:52;;;;;;;7.80;1.60;;;15.00;99.70;;;;;;5118291;28;20038;-68
2022/10/08 09:23:25;;;;;;;5.38;1.10;;;15.00;99.80;;;;;;5118561;28;20127;-68
2022/10/08 09:26:02;;;;;;;6.78;1.10;;;15.00;99.90;;;;;;5118487;28;20046;-68
2022/10/08 09:28:45;;;;;;;7.85;1.48;;;15.10;99.70;;;;;;5118370;28;20047;-68
2022/10/08 09:31:18;;;;;;;16.05;1.10;;;15.20;99.40;;;;;;5118499;28;20047;-68
2022/10/08 09:33:45;;;;;;;10.50;0.80;;;15.30;99.40;;;;;;5118413;28;20074;-68
2022/10/08 09:36:11;;;;;;;13.00;1.10;;;15.50;99.00;;;;;;5117251;28;20436;-68
2022/10/08 09:38:38;;;;;;;9.25;1.30;;;15.60;99.20;;;;;;5117961;28;20040;-68
2022/10/08 09:41:15;;;;;;;10.55;1.02;;;15.60;98.90;;;;;;5118269;28;20039;-68
2022/10/08 09:43:41;;;;;;;8.95;1.05;;;15.60;98.40;;;;;;5117869;28;20063;-68
2022/10/08 09:46:26;;;;;;;7.00;0.88;;;15.60;97.60;;;;;;5118171;28;20044;-68
2022/10/08 09:48:52;;;;;;;11.40;1.13;;;15.60;97.60;;;;;;5117834;28;20436;-70
2022/10/08 09:51:18;;;;;;;5.00;0.68;;;15.70;97.60;;;;;;5118045;28;20078;-70
2022/10/08 09:53:51;;;;;;;14.98;1.40;;;15.80;97.60;;;;;;5116910;28;20091;-70
2022/10/08 09:56:27;;;;;;;9.07;0.93;;;16.00;97.40;;;;;;5117991;28;20040;-71
2022/10/08 09:58:59;;;;;;;9.90;1.20;;;16.10;97.30;;;;;;5117996;28;20031;-71
2022/10/08 10:01:25;;;;;;;10.13;1.00;;;16.40;97.10;;;;;;5117556;28;20430;-71
2022/10/08 10:03:57;;;;;;;4.57;0.80;;;16.40;97.10;;;;;;5117515;28;20481;-71
2022/10/08 10:06:28;;;;;;;8.85;1.00;;;16.60;97.90;;;;;;5151000;27;20040;-71
2022/10/08 10:09:18;;;;;;;17.05;1.40;;;16.40;98.60;;;;;;5117419;28;20050;-71
2022/10/08 10:11:52;;;;;;;15.10;2.10;;;16.20;99.00;;;;;;5117808;28;20031;-72
2022/10/08 10:14:37;;;;;;;8.68;1.00;;;15.90;99.20;;;;;;5117748;28;20140;-70
2022/10/08 10:17:13;;;;;;;11.10;1.63;;;15.60;99.30;;;;;;5116925;28;20420;-71
2022/10/08 10:19:50;;;;;;;15.90;1.50;;;15.70;99.40;;;;;;5117367;28;20074;-70
2022/10/08 10:22:22;;;;;;;;;;;15.80;99.20;;;;;;5117823;28;20492;-70
2022/10/08 10:25:15;;;;;;;9.63;1.90;;;15.90;98.70;;;;;;5117428;28;19916;-70
2022/10/08 10:27:52;;;;;;;12.52;1.30;;;15.90;98.90;;;;;;5117466;28;20085;-70
2022/10/08 10:30:21;;;;;;;11.20;1.10;;;15.90;98.60;;;;;;5117235;28;20047;-70
2022/10/08 10:33:13;;;;;;;8.55;1.63;;;15.90;98.20;;;;;;5117415;28;20138;-70
2022/10/08 10:35:51;;;;;;;7.40;1.08;;;16.10;98.50;;;;;;5116887;28;20052;-70
2022/10/08 10:38:27;;;;;;;9.57;0.90;;;16.30;97.80;;;;;;5116311;28;20043;-70
2022/10/08 10:41:04;;;;;;;12.43;1.30;;;16.40;97.70;;;;;;5117349;28;20043;-78
2022/10/08 10:43:43;;;;;;;12.73;1.63;;;16.40;97.40;;;;;;5115810;28;20055;-70
2022/10/08 10:46:48;;;;;;;12.88;1.65;;;16.20;96.90;;;;;;5150314;27;20043;-71
2022/10/08 10:49:17;;;;;;;7.78;1.20;;;15.80;97.10;;;;;;5100402;27;20048;-71
2022/10/08 10:51:59;;;;;;;9.07;1.00;;;15.50;97.10;;;;;;5124191;27;20043;-87
2022/10/08 10:55:20;;;;;;;8.95;1.20;;;15.60;97.50;;;;;;5139987;27;20036;-76
2022/10/08 10:58:19;;;;;;;8.80;0.95;;;16.00;97.10;;;;;;5081145;28;20036;-80
2022/10/08 11:01:02;;;;;;;8.35;1.30;;;16.20;96.70;;;;;;5122971;28;20344;-72
2022/10/08 11:03:37;;;;;;;11.27;1.20;;;16.60;96.50;;;;;;5125633;27;20032;-80
2022/10/08 11:06:41;;;;;;;8.27;0.90;;;16.70;95.40;;;;;;5123516;28;20392;-74
2022/10/08 11:09:32;;;;;;;11.77;1.30;;;16.40;95.20;;;;;;5121941;28;20051;-76
2022/10/08 11:12:18;;;;;;;9.15;1.02;;;16.50;95.10;;;;;;5123867;27;20035;-82
2022/10/08 11:15:00;;;;;;;7.68;1.63;;;16.60;94.90;;;;;;5122587;28;20043;-77
2022/10/08 11:17:51;;;;;;;10.48;1.13;;;16.80;96.10;;;;;;5123440;27;20038;-80
2022/10/08 11:20:27;;;;;;;9.90;1.10;;;17.10;96.10;;;;;;5123555;27;20474;-80
2022/10/08 11:23:29;;;;;;;6.32;1.20;;;17.30;97.00;;;;;;5122719;28;20087;-78
2022/10/08 11:26:04;;;;;;;16.35;1.38;;;17.40;96.90;;;;;;5123740;27;20115;-82
2022/10/08 11:28:35;;;;;;;9.40;1.15;;;17.50;97.00;;;;;;5123739;27;20042;-71
2022/10/08 11:31:07;;;;;;;7.38;1.08;;;17.50;96.80;;;;;;5123761;27;20063;-77
2022/10/08 11:33:34;;;;;;;6.72;0.93;;;17.30;97.10;;;;;;5123667;28;20062;-83
2022/10/08 11:36:20;;;;;;;10.60;1.02;;;17.40;96.90;;;;;;5122301;28;20053;-83
2022/10/08 11:38:58;;;;;;;9.40;1.02;;;17.40;96.70;;;;;;5122356;28;20047;-74
2022/10/08 11:41:36;;;;;;;11.75;1.73;;;17.30;96.80;;;;;;5123659;27;20043;-74
2022/10/08 11:44:05;;;;;;;14.00;1.27;;;17.00;96.90;;;;;;5123125;27;20449;-74
2022/10/08 11:46:32;;;;;;;6.85;1.02;;;16.70;97.00;;;;;;5122827;27;20075;-71
2022/10/08 11:49:13;;;;;;;6.13;0.80;;;16.40;96.90;;;;;;5125430;27;20328;-70
2022/10/08 11:51:39;;;;;;;3.78;0.63;;;16.50;96.30;;;;;;5123461;28;20039;-71
2022/10/08 11:54:47;;;;;;;4.15;0.43;;;16.90;95.90;;;;;;5123206;27;20124;-70
2022/10/08 11:57:18;;;;;;;8.18;0.80;;;17.00;95.40;;;;;;5122790;27;20047;-71
2022/10/08 12:00:04;;;;;;;8.65;1.10;;;16.60;96.90;;;;;;5119214;28;20042;-71
2022/10/08 12:02:40;;;;;;;7.85;0.77;;;16.40;97.00;;;;;;5120229;28;20101;-71
2022/10/08 12:05:43;;;;;;;4.60;0.60;;;16.20;97.40;;;;;;5120130;28;20039;-71
2022/10/08 12:08:08;;;;;;;6.47;0.75;;;16.10;97.60;;;;;;5112727;28;20040;-72
2022/10/08 12:10:38;;;;;;;8.32;0.80;;;15.80;97.60;;;;;;5120042;28;20041;-86
2022/10/08 12:13:27;;;;;;;7.25;0.85;;;15.90;98.10;;;;;;5135890;27;20035;-70
2022/10/08 12:15:54;;;;;;;10.93;0.85;;;16.00;98.40;;;;;;5120098;28;20071;-69
2022/10/08 12:18:21;;;;;;;9.70;0.90;;;15.80;98.00;;;;;;5119509;28;20039;-69
2022/10/08 12:21:15;;;;;;;10.77;0.90;;;15.70;97.90;;;;;;5118797;28;20126;-69
2022/10/08 12:23:43;;;;;;;6.47;1.30;;;15.50;98.10;;;;;;5119524;28;20040;-69
2022/10/08 12:26:15;;;;;;;4.78;0.60;;;15.80;98.60;;;;;;5119669;28;20044;-69
2022/10/08 12:28:41;;;;;;;8.25;0.60;;;16.50;98.20;;;;;;5119696;28;20043;-69
2022/10/08 12:31:38;;;;;;;9.73;1.20;;;16.90;98.50;;;;;;5119741;28;20039;-68
2022/10/08 12:34:17;;;;;;;9.52;0.90;;;17.50;97.40;;;;;;5111349;28;20122;-68
2022/10/08 12:37:03;;;;;;;11.93;1.25;;;18.30;97.80;;;;;;5119586;28;20067;-70
2022/10/08 12:39:40;;;;;;;13.40;1.00;;;17.90;96.70;;;;;;5119527;28;20375;-70
2022/10/08 12:42:17;;;;;;;9.63;1.33;;;17.80;97.40;;;;;;5119203;28;20429;-70
2022/10/08 12:45:13;;;;;;;16.90;2.25;;;17.40;97.50;;;;;;5119135;28;20140;-69
2022/10/08 12:48:05;;;;;;;11.00;1.07;;;17.20;97.60;;;;;;5118974;28;20082;-70
2022/10/08 12:50:33;;;;;;;12.80;1.20;;;16.80;97.50;;;;;;5119540;28;20044;-70
2022/10/08 12:53:02;;;;;;;14.32;1.75;;;16.40;97.80;;;;;;5118181;28;20050;-70
2022/10/08 12:55:29;;;;;;;8.18;0.93;;;16.30;97.50;;;;;;5119183;28;20078;-70
2022/10/08 12:57:55;;;;;;;9.60;1.05;;;16.60;97.50;;;;;;5119142;28;20055;-70
2022/10/08 13:00:30;;;;;;;6.80;0.80;;;17.20;97.10;;;;;;5119063;28;20337;-70
2022/10/08 13:03:04;;;;;;;6.90;0.77;;;17.60;96.80;;;;;;5119094;28;20074;-82
2022/10/08 13:05:36;;;;;;;9.57;1.23;;;17.30;96.70;;;;;;5117589;28;20110;-70
2022/10/08 13:08:27;;;;;;;7.82;1.02;;;16.50;97.10;;;;;;5119034;28;20098;-73
2022/10/08 13:10:53;;;;;;;10.63;1.40;;;15.90;98.80;;;;;;5117442;28;20032;-71